Time;durP1;ratioP1;P1;durP2;ratioP2;P2;SDS_P1;SDS_P2;PMS_P1;PMS_P2;Temp;Humidity;BMP_temperature;BMP_pressure;BME280_temperature;BME280_humidity;BME280_pressure;Samples;Min_cycle;Max_cycle;Signal;HPM_P1;HPM_P2
2021/01/05 00:01:54;;;;;;;1.25;0.77;;;;;;;22.84;28.48;101564.56;4969004;28;127494;-60
2021/01/05 00:04:19;;;;;;;1.15;0.50;;;;;;;22.82;28.62;101561.09;4986662;28;109346;-60
2021/01/05 00:06:45;;;;;;;1.75;0.60;;;;;;;22.82;28.55;101563.75;4988351;28;96772;-60
2021/01/05 00:09:10;;;;;;;0.50;0.50;;;;;;;22.81;28.55;101562.84;4984577;28;97450;-60
2021/01/05 00:11:59;;;;;;;0.70;0.50;;;;;;;22.80;28.82;101566.44;4986007;28;100162;-60
2021/01/05 00:14:24;;;;;;;1.58;0.60;;;;;;;22.80;28.62;101566.44;4971948;28;97232;-60
2021/01/05 00:16:50;;;;;;;0.70;0.52;;;;;;;22.79;28.77;101567.34;4989354;28;98928;-60
2021/01/05 00:19:15;;;;;;;1.10;0.60;;;;;;;22.79;28.78;101563.81;4982772;28;117730;-60
2021/01/05 00:21:41;;;;;;;0.77;0.50;;;;;;;22.78;28.42;101565.63;4988808;28;126726;-60
2021/01/05 00:24:06;;;;;;;0.70;0.52;;;;;;;22.78;28.44;101568.28;4984999;28;97319;-60
2021/01/05 00:26:36;;;;;;;1.13;0.50;;;;;;;22.77;28.76;101574.50;4981840;28;116982;-60
2021/01/05 00:29:01;;;;;;;1.10;0.50;;;;;;;22.77;28.74;101571.84;4987406;28;100146;-60
2021/01/05 00:31:27;;;;;;;2.35;0.70;;;;;;;22.77;28.74;101574.50;4988521;28;97485;-60
2021/01/05 00:33:52;;;;;;;1.95;0.60;;;;;;;22.76;28.66;101569.22;4990209;28;126650;-60
2021/01/05 00:36:18;;;;;;;1.38;0.60;;;;;;;22.76;28.59;101566.56;4969659;28;117053;-60
2021/01/05 00:38:43;;;;;;;0.80;0.60;;;;;;;22.76;28.58;101569.22;4977817;28;96813;-60
2021/01/05 00:41:09;;;;;;;0.70;0.65;;;;;;;22.76;28.44;101569.22;4982369;28;125392;-60
2021/01/05 00:43:35;;;;;;;0.70;0.60;;;;;;;22.75;28.69;101565.69;4986929;28;127110;-60
2021/01/05 00:46:01;;;;;;;0.80;0.52;;;;;;;22.74;28.52;101571.91;4970064;28;97350;-60
2021/01/05 00:48:26;;;;;;;0.70;0.50;;;;;;;22.74;28.47;101573.69;4977961;28;96958;-60
2021/01/05 00:50:52;;;;;;;1.15;0.50;;;;;;;22.74;28.75;101571.91;4982253;28;100549;-60
2021/01/05 00:53:18;;;;;;;1.45;0.70;;;;;;;22.74;28.59;101573.69;4975657;28;98604;-60
2021/01/05 00:55:43;;;;;;;1.17;0.50;;;;;;;22.74;28.41;101573.69;4978593;28;103367;-60
2021/01/05 00:58:08;;;;;;;0.68;0.50;;;;;;;22.74;28.39;101574.56;4952457;28;97030;-60
2021/01/05 01:00:34;;;;;;;1.00;0.80;;;;;;;22.74;28.26;101579.88;4987423;28;99708;-60
2021/01/05 01:03:08;;;;;;;1.60;1.50;;;;;;;22.74;28.31;101582.53;4988163;28;99553;-60
2021/01/05 01:05:36;;;;;;;0.80;0.60;;;;;;;22.75;28.45;101588.75;4984680;28;96924;-60
2021/01/05 01:08:04;;;;;;;0.93;0.63;;;;;;;22.75;28.72;101580.78;4985749;28;96890;-60
2021/01/05 01:10:30;;;;;;;0.80;0.73;;;;;;;22.74;28.60;101585.19;4959431;28;101732;-60
2021/01/05 01:12:55;;;;;;;1.50;0.77;;;;;;;22.74;28.58;101582.53;4987090;28;100294;-60
2021/01/05 01:15:25;;;;;;;1.10;1.00;;;;;;;22.74;28.52;101585.19;4990056;28;97392;-60
2021/01/05 01:17:51;;;;;;;1.20;0.70;;;;;;;22.74;28.33;101587.84;4967837;28;97237;-60
2021/01/05 01:20:18;;;;;;;0.70;0.60;;;;;;;22.74;28.21;101584.34;4983557;28;100264;-60
2021/01/05 01:22:45;;;;;;;0.70;0.60;;;;;;;22.73;28.50;101585.28;4984304;28;97118;-60
2021/01/05 01:25:14;;;;;;;0.90;0.60;;;;;;;22.73;28.31;101577.28;4969243;28;97262;-60
2021/01/05 01:27:40;;;;;;;0.80;0.52;;;;;;;22.72;28.42;101581.72;4948719;28;97648;-60
2021/01/05 01:30:08;;;;;;;1.38;0.60;;;;;;;22.71;28.33;101582.66;4966310;28;100404;-60
2021/01/05 01:32:45;;;;;;;0.75;0.60;;;;;;;22.71;28.55;101584.41;4982213;28;98531;-60
2021/01/05 01:35:12;;;;;;;0.98;0.70;;;;;;;22.71;28.58;101587.97;4986659;28;96721;-60
2021/01/05 01:37:40;;;;;;;0.80;0.63;;;;;;;22.73;28.72;101593.25;4988270;28;97229;-60
2021/01/05 01:40:07;;;;;;;0.82;0.60;;;;;;;22.71;28.51;101582.66;4979437;28;98888;-60
2021/01/05 01:42:33;;;;;;;1.00;0.80;;;;;;;22.71;28.63;101587.06;4975676;28;97160;-60
2021/01/05 01:44:58;;;;;;;2.45;0.70;;;;;;;22.71;28.15;101589.72;4980989;28;97169;-60
2021/01/05 01:47:39;;;;;;;0.80;0.60;;;;;;;22.71;28.10;101584.41;4962493;28;98234;-60
2021/01/05 01:50:16;;;;;;;0.70;0.65;;;;;;;22.70;28.42;101580.03;4965084;28;98693;-60
2021/01/05 01:52:55;;;;;;;1.42;0.85;;;;;;;22.69;28.21;101584.47;4963364;28;97731;-60
2021/01/05 01:55:38;;;;;;;1.15;0.77;;;;;;;22.69;28.20;101586.25;4983732;28;97887;-60
2021/01/05 01:58:44;;;;;;;0.90;0.73;;;;;;;22.67;28.28;101583.63;4974552;28;97017;-60
2021/01/05 02:01:15;;;;;;;0.95;0.85;;;;;;;22.67;28.49;101588.94;4960111;28;99980;-60
2021/01/05 02:03:51;;;;;;;0.80;0.80;;;;;;;22.67;28.11;101577.44;4961563;28;99300;-60
2021/01/05 02:06:30;;;;;;;1.00;0.80;;;;;;;22.66;28.49;101583.69;4984254;28;96758;-60
2021/01/05 02:09:15;;;;;;;1.00;0.80;;;;;;;22.66;28.29;101581.03;4946061;28;96790;-60
2021/01/05 02:11:46;;;;;;;0.90;0.80;;;;;;;22.65;28.41;101574.81;4961696;28;100085;-60
2021/01/05 02:14:51;;;;;;;0.95;0.63;;;;;;;22.62;28.42;101574.91;4948268;28;97703;-60
2021/01/05 02:17:56;;;;;;;0.80;0.80;;;;;;;22.63;28.32;101577.50;4976240;28;97152;-60
2021/01/05 02:20:23;;;;;;;0.80;0.70;;;;;;;22.65;28.11;101572.16;4957190;28;96887;-60
2021/01/05 02:23:28;;;;;;;0.90;0.77;;;;;;;22.62;28.35;101573.13;4985127;28;97407;-60
2021/01/05 02:26:00;;;;;;;0.85;0.70;;;;;;;22.63;28.51;101572.19;4978363;28;98444;-60
2021/01/05 02:28:32;;;;;;;1.00;0.80;;;;;;;22.64;28.44;101570.44;4980251;28;96738;-60
2021/01/05 02:31:01;;;;;;;1.00;0.70;;;;;;;22.63;28.48;101580.16;4957351;28;96930;-60
2021/01/05 02:33:44;;;;;;;0.80;0.70;;;;;;;22.62;28.14;101572.25;4950131;28;99553;-60
2021/01/05 02:36:17;;;;;;;1.10;0.80;;;;;;;22.63;28.39;101566.88;4964142;28;98161;-60
2021/01/05 02:39:21;;;;;;;1.95;1.85;;;;;;;22.63;28.41;101571.31;5006317;22;97185;-52
2021/01/05 02:42:23;;;;;;;1.33;0.90;;;;;;;22.64;28.21;101570.44;4952646;28;98958;-52
2021/01/05 02:45:18;;;;;;;1.00;0.70;;;;;;;22.62;28.25;101567.81;4959557;28;97449;-53
2021/01/05 02:48:08;;;;;;;1.10;0.80;;;;;;;22.63;28.39;101574.00;4929375;28;97213;-52
2021/01/05 02:51:17;;;;;;;0.90;0.80;;;;;;;22.61;28.49;101573.16;4965398;28;97072;-52
2021/01/05 02:54:31;;;;;;;0.95;0.80;;;;;;;22.62;28.22;101570.47;4940451;28;97045;-52
2021/01/05 02:57:40;;;;;;;1.10;0.98;;;;;;;22.62;28.00;101558.97;4946973;28;98109;-52
2021/01/05 03:00:25;;;;;;;1.02;0.93;;;;;;;22.62;28.44;101558.97;4959989;28;96913;-52
2021/01/05 03:03:24;;;;;;;1.38;1.27;;;;;;;22.60;28.20;101556.34;4956120;28;97230;-52
2021/01/05 03:06:17;;;;;;;1.80;0.95;;;;;;;22.61;28.19;101558.06;4948237;28;97031;-52
2021/01/05 03:09:53;;;;;;;0.80;0.70;;;;;;;22.60;28.29;101555.44;4959982;28;97181;-52
2021/01/05 03:12:43;;;;;;;1.20;1.00;;;;;;;22.61;28.04;101560.72;4926550;28;98445;-52
2021/01/05 03:15:42;;;;;;;1.25;1.08;;;;;;;22.60;28.43;101555.44;4963254;28;96801;-52
2021/01/05 03:18:40;;;;;;;1.00;0.73;;;;;;;22.59;28.19;101551.94;4960836;28;96692;-52
2021/01/05 03:21:27;;;;;;;1.77;0.90;;;;;;;22.60;28.32;101552.78;4948980;28;97134;-52
2021/01/05 03:24:12;;;;;;;1.15;1.05;;;;;;;22.60;28.00;101558.09;4943567;28;96963;-52
2021/01/05 03:26:56;;;;;;;1.27;0.90;;;;;;;22.61;28.39;101562.53;4932584;28;96910;-53
2021/01/05 03:29:39;;;;;;;;;;;;;;;22.58;28.60;101558.19;4955338;28;96792;-53
2021/01/05 03:32:24;;;;;;;1.15;1.00;;;;;;;22.61;28.31;101558.06;4958615;28;97128;-53
2021/01/05 03:35:08;;;;;;;;;;;;;;;22.59;28.19;101554.59;4958382;28;96935;-52
2021/01/05 03:37:53;;;;;;;1.10;0.98;;;;;;;22.62;28.04;101562.50;4959417;28;96992;-52
2021/01/05 03:40:37;;;;;;;1.20;1.08;;;;;;;22.60;28.08;101553.69;4944320;28;96852;-52
2021/01/05 03:43:21;;;;;;;0.90;0.75;;;;;;;22.59;28.36;101554.59;4960648;28;97130;-53
2021/01/05 03:46:05;;;;;;;1.02;0.93;;;;;;;22.58;28.02;101560.84;4958647;28;96998;-53
2021/01/05 03:48:49;;;;;;;;;;;;;;;22.57;28.35;101560.88;4959266;28;96643;-53
2021/01/05 03:51:34;;;;;;;1.15;0.90;;;;;;;22.61;28.10;101560.72;4958033;28;96765;-53
2021/01/05 03:54:18;;;;;;;0.85;0.77;;;;;;;22.60;27.95;101558.09;4959242;28;96838;-53
2021/01/05 03:57:02;;;;;;;;;;;;;;;22.57;28.24;101559.06;4957023;28;96908;-53
2021/01/05 03:59:46;;;;;;;0.80;0.80;;;;;;;22.60;28.06;101556.34;4958215;28;97036;-52
2021/01/05 04:02:30;;;;;;;;;;;;;;;22.57;28.56;101560.88;4956467;28;96909;-52
2021/01/05 04:04:56;;;;;;;0.90;0.63;;;;;;;22.60;28.44;101556.34;4954694;28;97636;-52
2021/01/05 04:07:21;;;;;;;0.95;0.82;;;;;;;22.57;28.34;101560.88;4959555;28;126927;-52
2021/01/05 04:09:47;;;;;;;1.13;0.90;;;;;;;22.58;28.12;101562.59;4927245;28;109868;-52
2021/01/05 04:12:12;;;;;;;0.90;0.70;;;;;;;22.57;28.05;101556.41;4941836;28;96873;-52
2021/01/05 04:14:38;;;;;;;1.20;0.80;;;;;;;22.59;28.07;101551.06;4948064;28;106323;-52
2021/01/05 04:17:03;;;;;;;0.90;0.70;;;;;;;22.59;28.26;101548.41;4954967;28;126524;-52
2021/01/05 04:19:29;;;;;;;0.88;0.73;;;;;;;22.59;28.00;101551.94;4961022;28;96598;-52
2021/01/05 04:21:54;;;;;;;1.00;0.80;;;;;;;22.61;28.20;101551.88;4963720;28;116637;-52
2021/01/05 04:24:20;;;;;;;1.05;0.77;;;;;;;22.61;28.31;101558.06;4955844;28;126818;-52
2021/01/05 04:26:45;;;;;;;1.10;0.98;;;;;;;22.63;27.86;101560.69;4963625;28;97209;-52
2021/01/05 04:29:11;;;;;;;1.08;0.90;;;;;;;22.63;28.03;101556.25;4932480;28;117001;-52
2021/01/05 04:31:40;;;;;;;1.13;0.95;;;;;;;22.64;27.98;101554.47;4958127;28;97225;-53
2021/01/05 04:34:06;;;;;;;1.00;0.90;;;;;;;22.63;28.07;101555.38;4954346;28;100667;-52
2021/01/05 04:36:33;;;;;;;1.27;1.00;;;;;;;22.65;27.96;101560.66;4961558;28;126574;-52
2021/01/05 04:38:58;;;;;;;1.00;0.80;;;;;;;22.64;28.05;101551.81;4969545;28;118081;-52
2021/01/05 04:41:24;;;;;;;1.05;0.95;;;;;;;22.63;28.16;101558.91;4939525;28;96842;-52
2021/01/05 04:43:51;;;;;;;1.10;1.00;;;;;;;22.64;28.18;101554.47;4955017;28;126887;-52
2021/01/05 04:46:19;;;;;;;1.00;0.88;;;;;;;22.65;27.99;101556.19;4926389;28;103561;-52
2021/01/05 04:48:57;;;;;;;1.10;0.90;;;;;;;22.63;27.77;101550.91;4963047;28;96803;-52
2021/01/05 04:51:35;;;;;;;1.13;0.90;;;;;;;22.62;28.03;101565.16;4942236;28;96918;-52
2021/01/05 04:54:13;;;;;;;1.65;1.10;;;;;;;22.64;27.96;101559.78;4944641;28;97560;-52
2021/01/05 04:56:59;;;;;;;1.17;1.00;;;;;;;22.63;27.97;101563.34;4960204;28;97297;-52
2021/01/05 04:59:28;;;;;;;1.30;1.00;;;;;;;22.65;27.86;101563.31;4925085;28;96928;-52
2021/01/05 05:01:53;;;;;;;1.27;1.00;;;;;;;22.66;27.68;101559.75;4940762;28;97383;-53
2021/01/05 05:04:31;;;;;;;1.25;1.00;;;;;;;22.62;28.07;101553.66;4956525;28;126841;-52
2021/01/05 05:07:14;;;;;;;1.20;1.02;;;;;;;22.62;27.67;101554.50;4957968;28;116593;-52
2021/01/05 05:10:13;;;;;;;1.10;0.80;;;;;;;22.61;27.96;101558.06;4959800;28;97185;-52
2021/01/05 05:13:12;;;;;;;1.30;0.98;;;;;;;22.61;27.87;101563.38;4958807;28;114923;-52
2021/01/05 05:15:49;;;;;;;1.20;0.93;;;;;;;22.61;27.75;101562.53;4955376;28;97543;-53
2021/01/05 05:18:31;;;;;;;1.00;0.90;;;;;;;22.59;28.17;101561.69;4923708;28;98717;-52
2021/01/05 05:21:24;;;;;;;1.45;0.90;;;;;;;22.59;27.95;101569.69;4956189;28;96890;-52
2021/01/05 05:24:00;;;;;;;1.00;0.90;;;;;;;22.60;28.08;101576.72;4960391;28;96863;-52
2021/01/05 05:26:37;;;;;;;1.23;1.00;;;;;;;22.59;27.69;101564.34;4923725;28;97805;-52
2021/01/05 05:29:11;;;;;;;1.33;0.90;;;;;;;22.60;27.80;101571.41;4961234;28;97312;-52
2021/01/05 05:31:36;;;;;;;1.52;1.10;;;;;;;22.60;27.85;101572.28;4940917;28;97036;-52
2021/01/05 05:34:13;;;;;;;1.42;1.13;;;;;;;22.59;28.13;101581.16;4940487;28;117411;-52
2021/01/05 05:36:47;;;;;;;1.50;1.10;;;;;;;22.61;27.98;101575.81;4942883;28;125876;-52
2021/01/05 05:39:43;;;;;;;1.27;1.00;;;;;;;22.59;28.02;101581.16;4961035;28;97185;-52
2021/01/05 05:42:35;;;;;;;1.17;1.00;;;;;;;22.62;27.71;101582.91;4957831;28;96745;-52
2021/01/05 05:45:02;;;;;;;1.10;1.00;;;;;;;22.61;27.85;101581.13;4931220;28;96917;-52
2021/01/05 05:47:34;;;;;;;1.20;1.00;;;;;;;22.60;27.86;101576.72;4940987;28;97560;-52
2021/01/05 05:50:08;;;;;;;1.30;1.00;;;;;;;22.61;27.69;101578.47;4924460;28;126041;-52
2021/01/05 05:52:54;;;;;;;1.30;0.90;;;;;;;22.60;27.99;101585.59;4960112;28;96838;-52
2021/01/05 05:55:25;;;;;;;1.45;1.05;;;;;;;22.60;28.07;101580.28;4941308;28;96959;-52
2021/01/05 05:57:51;;;;;;;1.38;1.00;;;;;;;22.61;27.74;101581.13;4934484;28;99660;-53
2021/01/05 06:00:31;;;;;;;1.00;0.90;;;;;;;22.61;28.01;101586.44;4940871;28;97175;-52
2021/01/05 06:03:03;;;;;;;1.27;1.08;;;;;;;22.61;27.81;101587.31;4954891;28;115101;-52
2021/01/05 06:05:31;;;;;;;2.08;1.00;;;;;;;22.62;27.72;101586.41;4941289;28;96978;-52
2021/01/05 06:07:56;;;;;;;0.98;0.85;;;;;;;22.62;28.04;101586.41;4955631;28;97549;-52
2021/01/05 06:10:22;;;;;;;1.10;0.95;;;;;;;22.62;27.84;101589.06;4922590;28;97293;-52
2021/01/05 06:12:47;;;;;;;1.20;0.90;;;;;;;22.62;27.62;101589.06;4941404;28;96955;-52
2021/01/05 06:15:13;;;;;;;1.33;1.10;;;;;;;22.63;27.65;101592.59;4951083;28;116768;-52
2021/01/05 06:17:39;;;;;;;1.33;1.10;;;;;;;22.63;27.66;101589.94;4960001;28;97451;-52
2021/01/05 06:20:05;;;;;;;1.20;1.10;;;;;;;22.63;27.67;101588.16;4956974;28;97222;-52
2021/01/05 06:22:30;;;;;;;1.60;1.10;;;;;;;22.64;27.59;101589.03;4939774;28;96780;-52
2021/01/05 06:24:56;;;;;;;1.00;0.90;;;;;;;22.63;27.84;101590.81;4956698;28;118884;-52
2021/01/05 06:27:21;;;;;;;1.17;0.90;;;;;;;22.63;27.90;101587.28;4959203;28;97569;-52
2021/01/05 06:29:47;;;;;;;1.20;1.10;;;;;;;22.64;27.47;101599.69;4960101;28;126589;-52
2021/01/05 06:32:12;;;;;;;1.35;1.08;;;;;;;22.64;27.84;101597.03;4923572;28;117230;-52
2021/01/05 06:34:38;;;;;;;1.45;1.08;;;;;;;22.63;27.84;101592.59;4940759;28;97085;-52
2021/01/05 06:37:03;;;;;;;1.30;1.10;;;;;;;22.63;27.65;101597.91;4943655;28;97546;-52
2021/01/05 06:39:29;;;;;;;1.50;1.30;;;;;;;22.63;27.69;101597.91;4954902;28;121134;-52
2021/01/05 06:41:54;;;;;;;1.40;1.00;;;;;;;22.64;27.81;101594.34;4959651;28;96654;-52
2021/01/05 06:44:19;;;;;;;1.50;1.10;;;;;;;22.63;27.60;101609.41;4940971;28;112235;-52
2021/01/05 06:46:49;;;;;;;1.27;1.00;;;;;;;22.63;27.69;101608.56;4958866;28;125530;-52
2021/01/05 06:49:15;;;;;;;1.08;0.88;;;;;;;22.62;27.62;101607.69;4960461;28;97202;-53
2021/01/05 06:51:41;;;;;;;1.40;1.10;;;;;;;22.63;27.91;101609.41;4957862;28;117077;-52
2021/01/05 06:54:07;;;;;;;1.30;1.10;;;;;;;22.63;27.71;101606.75;4963336;28;117909;-52
2021/01/05 06:56:32;;;;;;;1.15;1.00;;;;;;;22.63;27.85;101613.88;4960146;28;97523;-52
2021/01/05 06:58:58;;;;;;;1.90;1.35;;;;;;;22.63;27.62;101619.19;4939765;28;126590;-52
2021/01/05 07:01:23;;;;;;;1.17;1.00;;;;;;;22.63;27.68;101614.72;4960113;28;117092;-52
2021/01/05 07:03:49;;;;;;;1.20;0.90;;;;;;;22.63;27.86;101608.56;4959566;28;97269;-52
2021/01/05 07:06:14;;;;;;;1.50;1.05;;;;;;;22.63;27.55;101611.22;4958485;28;126473;-52
2021/01/05 07:08:40;;;;;;;1.27;1.00;;;;;;;22.62;27.43;101607.69;4959524;28;125688;-53
2021/01/05 07:11:05;;;;;;;1.50;1.00;;;;;;;22.63;27.68;101619.19;4964788;28;96805;-53
2021/01/05 07:13:31;;;;;;;1.50;1.30;;;;;;;22.62;27.54;101609.47;4961530;28;117664;-53
2021/01/05 07:15:56;;;;;;;1.40;1.17;;;;;;;22.63;27.86;101616.53;4961426;28;117909;-53
2021/01/05 07:18:23;;;;;;;1.50;1.13;;;;;;;22.62;27.66;101617.47;4970687;28;97206;-52
2021/01/05 07:20:49;;;;;;;1.60;1.08;;;;;;;22.61;27.53;101618.34;4960791;28;96755;-52
2021/01/05 07:23:14;;;;;;;1.52;1.00;;;;;;;22.62;27.93;101618.31;4941340;28;96794;-52
2021/01/05 07:25:40;;;;;;;1.40;1.00;;;;;;;22.62;27.36;101617.47;4924561;28;126597;-52
2021/01/05 07:28:05;;;;;;;2.45;1.38;;;;;;;22.62;27.73;101622.78;4960359;28;97175;-52
2021/01/05 07:30:31;;;;;;;1.45;1.20;;;;;;;22.62;27.67;101618.31;4961691;28;117033;-52
2021/01/05 07:32:56;;;;;;;1.52;1.17;;;;;;;22.62;27.60;101623.66;4958906;28;96653;-52
2021/01/05 07:35:21;;;;;;;1.40;1.10;;;;;;;22.62;27.59;101628.09;4936866;28;126926;-52
2021/01/05 07:37:47;;;;;;;1.48;1.20;;;;;;;22.62;27.56;101622.78;4959705;28;126624;-52
2021/01/05 07:40:14;;;;;;;1.60;0.95;;;;;;;22.63;27.41;101628.03;4960666;28;96739;-52
2021/01/05 07:42:39;;;;;;;1.40;1.10;;;;;;;22.63;27.32;101630.69;4958710;28;96868;-52
2021/01/05 07:45:08;;;;;;;1.70;1.25;;;;;;;22.62;27.77;101622.78;4956570;28;97433;-52
2021/01/05 07:47:35;;;;;;;1.45;1.17;;;;;;;22.63;27.40;101632.47;4923688;28;97259;-52
2021/01/05 07:50:00;;;;;;;1.30;1.15;;;;;;;22.62;27.77;101634.28;4940011;28;117156;-52
2021/01/05 07:52:39;;;;;;;1.48;1.17;;;;;;;22.61;27.71;101629.84;4959004;28;101722;-52
2021/01/05 07:55:16;;;;;;;1.50;1.10;;;;;;;22.62;27.69;101638.72;4960255;28;122382;-53
2021/01/05 07:57:42;;;;;;;2.30;1.20;;;;;;;22.63;27.52;101632.47;4967551;28;97993;-53
2021/01/05 08:00:08;;;;;;;1.50;1.20;;;;;;;22.62;27.29;101633.41;4941894;28;96935;-53
2021/01/05 08:02:38;;;;;;;1.58;1.30;;;;;;;22.62;27.55;101641.38;4962283;28;96831;-52
2021/01/05 08:05:03;;;;;;;1.50;1.30;;;;;;;22.62;27.46;101642.25;4959704;28;97443;-53
2021/01/05 08:07:29;;;;;;;1.95;1.48;;;;;;;22.62;27.34;101644.91;4955809;28;98364;-52
2021/01/05 08:09:54;;;;;;;1.70;1.20;;;;;;;22.61;27.79;101643.16;4958707;28;118251;-52
2021/01/05 08:12:20;;;;;;;1.50;1.30;;;;;;;22.62;27.34;101644.06;4964689;28;116563;-53
2021/01/05 08:14:46;;;;;;;1.52;1.30;;;;;;;22.61;27.60;101643.16;4937683;28;102312;-52
2021/01/05 08:17:12;;;;;;;1.70;1.50;;;;;;;22.61;27.81;101642.28;4945955;28;104636;-52
2021/01/05 08:19:44;;;;;;;1.35;1.20;;;;;;;22.61;27.61;101645.81;4961818;28;97322;-53
2021/01/05 08:22:10;;;;;;;1.50;1.20;;;;;;;22.62;27.47;101647.56;4960293;28;97303;-52
2021/01/05 08:24:36;;;;;;;1.45;1.30;;;;;;;22.62;27.63;101652.91;4940357;28;127555;-52
2021/01/05 08:27:01;;;;;;;1.67;1.45;;;;;;;22.62;27.37;101654.69;4957624;28;126575;-52
2021/01/05 08:29:28;;;;;;;1.45;1.25;;;;;;;22.62;27.36;101654.69;4957045;28;97943;-53
2021/01/05 08:31:54;;;;;;;1.67;1.35;;;;;;;22.61;27.71;101651.13;4944340;28;96972;-53
2021/01/05 08:34:19;;;;;;;2.03;1.30;;;;;;;22.61;27.56;101647.59;4954963;28;124873;-53
2021/01/05 08:36:45;;;;;;;1.58;1.27;;;;;;;22.60;27.67;101646.75;4962453;28;97177;-52
2021/01/05 08:39:13;;;;;;;1.92;1.30;;;;;;;22.61;27.72;101647.59;4954313;28;96810;-52
2021/01/05 08:41:40;;;;;;;2.22;1.55;;;;;;;22.60;27.68;101654.72;4991811;22;97032;-93
2021/01/05 08:44:06;;;;;;;1.88;1.40;;;;;;;22.60;27.44;101651.16;4929926;28;99780;-93
2021/01/05 08:46:53;;;;;;;2.13;1.92;;;;;;;22.59;27.62;101660.06;4967456;28;98467;-94
2021/01/05 08:49:19;;;;;;;1.98;1.70;;;;;;;22.61;27.16;101653.78;4952222;28;96506;-94
2021/01/05 08:51:47;;;;;;;2.15;1.95;;;;;;;22.60;27.67;101654.72;4922420;28;96367;-93
2021/01/05 08:54:13;;;;;;;1.83;1.40;;;;;;;22.60;27.63;101661.78;4933147;28;99436;-93
2021/01/05 08:56:38;;;;;;;2.08;1.83;;;;;;;22.60;27.62;101667.13;4922882;28;98965;-93
2021/01/05 08:59:04;;;;;;;2.15;1.95;;;;;;;22.60;27.66;101670.66;4915150;28;96693;-93
2021/01/05 09:01:29;;;;;;;2.22;1.70;;;;;;;22.60;27.46;101668.00;4932669;28;96691;-93
2021/01/05 09:03:55;;;;;;;2.40;1.83;;;;;;;22.61;27.59;101666.22;4933621;28;98901;-94
2021/01/05 09:06:24;;;;;;;2.17;1.98;;;;;;;22.60;27.57;101662.69;4925010;28;98400;-93
2021/01/05 09:08:54;;;;;;;3.03;2.30;;;;;;;22.60;27.60;101670.66;4930421;28;97108;-93
2021/01/05 09:12:11;;;;;;;3.15;2.88;;;;;;;22.58;27.34;101672.50;4921102;28;96510;-95
2021/01/05 09:15:17;;;;;;;2.88;2.67;;;;;;;22.59;27.43;101666.25;4967930;28;96254;-95
2021/01/05 09:17:54;;;;;;;2.63;2.40;;;;;;;22.59;27.41;101674.22;4945418;28;98761;-94
2021/01/05 09:21:04;;;;;;;3.72;3.42;;;;;;;22.59;27.22;101668.91;4948600;28;97788;-95
2021/01/05 09:24:15;;;;;;;4.03;3.72;;;;;;;22.58;27.32;101677.81;4925913;28;97308;-94
2021/01/05 09:26:53;;;;;;;2.10;1.90;;;;;;;22.62;27.61;101670.63;4916200;28;125487;-93
2021/01/05 09:29:18;;;;;;;2.55;1.83;;;;;;;22.62;27.23;101670.63;4941381;28;99006;-95
2021/01/05 09:31:46;;;;;;;2.72;2.53;;;;;;;22.60;27.42;101673.34;4928887;28;96710;-94
2021/01/05 09:34:12;;;;;;;2.45;1.90;;;;;;;22.61;27.55;101668.88;4942177;28;96559;-93
2021/01/05 09:36:37;;;;;;;2.50;1.77;;;;;;;22.61;27.43;101672.41;4912144;28;99563;-94
2021/01/05 09:39:04;;;;;;;2.17;1.80;;;;;;;22.61;27.25;101669.75;4926841;28;99100;-94
2021/01/05 09:41:41;;;;;;;2.50;2.25;;;;;;;22.61;27.39;101675.06;4935620;28;96148;-93
2021/01/05 09:44:12;;;;;;;2.88;1.92;;;;;;;22.60;27.44;101673.34;4928759;28;96676;-94
2021/01/05 09:46:41;;;;;;;2.45;2.25;;;;;;;22.61;27.45;101675.06;4936718;28;99218;-94
2021/01/05 09:49:12;;;;;;;2.90;2.00;;;;;;;22.61;27.61;101672.41;4937691;28;99767;-94
2021/01/05 09:51:40;;;;;;;2.67;2.30;;;;;;;22.61;27.60;101677.72;4933546;28;95840;-94
2021/01/05 09:54:06;;;;;;;2.90;1.92;;;;;;;22.60;27.66;101678.66;4935676;28;96622;-93
2021/01/05 09:56:32;;;;;;;2.20;1.80;;;;;;;22.61;27.56;101679.50;4926237;28;99224;-94
2021/01/05 09:58:57;;;;;;;2.47;2.00;;;;;;;22.60;27.69;101673.34;4922506;28;99056;-94
2021/01/05 10:01:30;;;;;;;2.50;1.92;;;;;;;22.60;27.56;101681.31;4945665;23;96940;-60
2021/01/05 10:03:55;;;;;;;4.53;2.13;;;;;;;22.62;27.61;101681.28;4954330;28;96962;-59
2021/01/05 10:06:30;;;;;;;6.47;2.13;;;;;;;22.60;27.34;101677.75;4968320;28;126847;-57
2021/01/05 10:08:55;;;;;;;2.60;1.98;;;;;;;22.61;27.74;101674.19;4991293;28;97377;-54
2021/01/05 10:11:21;;;;;;;6.97;2.10;;;;;;;22.61;27.53;101676.84;4969043;28;97368;-54
2021/01/05 10:13:46;;;;;;;2.03;1.52;;;;;;;22.62;27.73;101683.94;4966489;28;96846;-53
2021/01/05 10:16:12;;;;;;;5.47;1.90;;;;;;;22.62;27.82;101679.47;4991146;28;97420;-54
2021/01/05 10:18:37;;;;;;;5.68;1.85;;;;;;;22.62;27.43;101687.47;4950112;28;100030;-54
2021/01/05 10:21:03;;;;;;;4.78;2.10;;;;;;;22.62;27.49;101683.94;4955045;28;117167;-54
2021/01/05 10:23:28;;;;;;;3.35;1.55;;;;;;;22.65;27.60;101680.31;4973012;28;97081;-54
2021/01/05 10:25:54;;;;;;;4.15;1.77;;;;;;;22.63;27.45;101681.22;4972039;28;114547;-54
2021/01/05 10:28:19;;;;;;;4.55;1.80;;;;;;;22.65;27.68;101675.00;4980149;28;98479;-54
2021/01/05 10:30:45;;;;;;;2.78;1.80;;;;;;;22.65;27.53;101675.00;4977232;28;96757;-54
2021/01/05 10:33:10;;;;;;;3.63;2.35;;;;;;;22.65;27.91;101675.00;4976673;28;106301;-54
2021/01/05 10:35:36;;;;;;;4.70;2.03;;;;;;;22.65;27.55;101675.00;4957930;28;97537;-53
2021/01/05 10:38:01;;;;;;;4.07;1.80;;;;;;;22.66;27.47;101676.75;4957345;28;126417;-54
2021/01/05 10:40:27;;;;;;;3.45;1.85;;;;;;;22.65;27.55;101675.84;4979690;28;98211;-54
2021/01/05 10:42:52;;;;;;;4.65;1.88;;;;;;;22.66;27.73;101674.09;4985232;28;96883;-53
2021/01/05 10:45:20;;;;;;;3.55;1.67;;;;;;;22.66;27.50;101674.09;4990525;28;126836;-54
2021/01/05 10:47:47;;;;;;;2.22;1.65;;;;;;;22.66;27.92;101659.00;4987252;28;97133;-53
2021/01/05 10:50:14;;;;;;;2.97;1.90;;;;;;;22.67;27.77;101668.72;4989371;28;96835;-53
2021/01/05 10:52:39;;;;;;;2.22;1.70;;;;;;;22.68;27.59;101664.28;4953460;28;96918;-53
2021/01/05 10:55:05;;;;;;;3.97;2.00;;;;;;;22.67;27.44;101658.06;4984826;28;113552;-54
2021/01/05 10:57:31;;;;;;;2.72;1.65;;;;;;;22.68;27.63;101658.97;4988581;28;97358;-53
2021/01/05 10:59:56;;;;;;;4.55;1.95;;;;;;;22.69;27.90;101661.59;4992690;28;96670;-54
2021/01/05 11:02:22;;;;;;;2.97;2.00;;;;;;;22.69;27.58;101664.25;4990673;28;116959;-54
2021/01/05 11:04:47;;;;;;;2.53;1.67;;;;;;;22.69;27.53;101660.69;4991389;28;102255;-53
2021/01/05 11:07:14;;;;;;;2.25;1.58;;;;;;;22.70;27.83;101655.34;4971498;28;101114;-53
2021/01/05 11:09:40;;;;;;;3.33;1.83;;;;;;;22.71;27.62;101658.88;4975417;28;96786;-52
2021/01/05 11:12:07;;;;;;;3.85;1.83;;;;;;;22.71;27.92;101661.53;4974689;28;96783;-52
2021/01/05 11:14:32;;;;;;;5.20;1.80;;;;;;;22.72;27.91;101656.19;4940567;28;100331;-52
2021/01/05 11:16:58;;;;;;;3.17;2.10;;;;;;;22.73;27.78;101659.72;4991473;28;109644;-53
2021/01/05 11:19:24;;;;;;;2.45;1.70;;;;;;;22.73;27.59;101651.75;4974467;28;100048;-52
2021/01/05 11:21:53;;;;;;;4.32;1.60;;;;;;;22.73;27.57;101657.06;4959334;28;118444;-52
2021/01/05 11:24:19;;;;;;;3.60;1.90;;;;;;;22.74;27.54;101653.47;4977161;28;97786;-57
2021/01/05 11:26:45;;;;;;;5.32;1.90;;;;;;;22.73;27.78;101647.31;4964088;28;97233;-55
2021/01/05 11:29:10;;;;;;;2.60;1.77;;;;;;;22.73;27.86;101649.97;4961263;28;117323;-52
2021/01/05 11:31:36;;;;;;;3.90;2.00;;;;;;;22.74;27.97;101648.16;4982475;28;96746;-50
2021/01/05 11:34:01;;;;;;;3.97;1.77;;;;;;;22.76;27.79;101638.34;4980122;28;97504;-53
2021/01/05 11:36:27;;;;;;;4.35;2.20;;;;;;;22.78;27.75;101637.41;4978954;28;99568;-53
2021/01/05 11:38:53;;;;;;;5.63;2.20;;;;;;;22.82;27.83;101635.56;4982578;28;109182;-53
2021/01/05 11:41:21;;;;;;;3.00;2.10;;;;;;;22.84;28.10;101632.84;4981542;28;96860;-52
2021/01/05 11:43:47;;;;;;;4.32;2.20;;;;;;;22.86;27.72;101637.22;4982074;28;110037;-53
2021/01/05 11:46:13;;;;;;;4.18;2.10;;;;;;;22.87;27.75;101630.09;4992888;28;97452;-53
2021/01/05 11:48:38;;;;;;;5.95;1.95;;;;;;;22.89;27.95;101626.50;4984516;28;117034;-53